sensor_id;sensor_type;location;lat;lon;timestamp;P1;durP1;ratioP1;P2;durP2;ratioP2
54517;SDS011;40423;53.176;6.002;2023-05-02T00:02:03;15.25;;;3.92;;
54517;SDS011;40423;53.176;6.002;2023-05-02T00:04:28;13.52;;;3.92;;
54517;SDS011;40423;53.176;6.002;2023-05-02T00:06:54;10.75;;;3.50;;
54517;SDS011;40423;53.176;6.002;2023-05-02T00:09:20;14.35;;;3.97;;
54517;SDS011;40423;53.176;6.002;2023-05-02T00:11:46;9.80;;;3.28;;
54517;SDS011;40423;53.176;6.002;2023-05-02T00:14:11;15.48;;;5.32;;
54517;SDS011;40423;53.176;6.002;2023-05-02T00:16:37;10.75;;;3.58;;
54517;SDS011;40423;53.176;6.002;2023-05-02T00:19:03;9.45;;;3.80;;
54517;SDS011;40423;53.176;6.002;2023-05-02T00:21:29;10.27;;;3.63;;
54517;SDS011;40423;53.176;6.002;2023-05-02T00:23:55;11.15;;;3.42;;
54517;SDS011;40423;53.176;6.002;2023-05-02T00:26:21;10.45;;;3.47;;
54517;SDS011;40423;53.176;6.002;2023-05-02T00:28:47;12.10;;;3.88;;
54517;SDS011;40423;53.176;6.002;2023-05-02T00:31:13;9.85;;;2.85;;
54517;SDS011;40423;53.176;6.002;2023-05-02T00:33:39;7.93;;;2.92;;
54517;SDS011;40423;53.176;6.002;2023-05-02T00:36:15;8.15;;;3.35;;
54517;SDS011;40423;53.176;6.002;2023-05-02T00:38:42;9.45;;;3.15;;
54517;SDS011;40423;53.176;6.002;2023-05-02T00:41:07;8.43;;;2.90;;
54517;SDS011;40423;53.176;6.002;2023-05-02T00:43:33;6.68;;;3.10;;
54517;SDS011;40423;53.176;6.002;2023-05-02T00:46:00;8.23;;;3.55;;
54517;SDS011;40423;53.176;6.002;2023-05-02T00:48:27;12.60;;;3.83;;
54517;SDS011;40423;53.176;6.002;2023-05-02T00:50:53;7.85;;;3.30;;
54517;SDS011;40423;53.176;6.002;2023-05-02T00:53:20;7.53;;;3.10;;
54517;SDS011;40423;53.176;6.002;2023-05-02T00:55:45;10.57;;;4.25;;
54517;SDS011;40423;53.176;6.002;2023-05-02T00:58:14;10.50;;;3.75;;
54517;SDS011;40423;53.176;6.002;2023-05-02T01:00:57;14.80;;;4.65;;
54517;SDS011;40423;53.176;6.002;2023-05-02T01:06:35;18.67;;;5.15;;
54517;SDS011;40423;53.176;6.002;2023-05-02T01:12:19;20.25;;;5.30;;
54517;SDS011;40423;53.176;6.002;2023-05-02T01:14:53;21.38;;;5.75;;
54517;SDS011;40423;53.176;6.002;2023-05-02T01:17:30;24.58;;;4.22;;
54517;SDS011;40423;53.176;6.002;2023-05-02T01:19:59;14.07;;;4.60;;
54517;SDS011;40423;53.176;6.002;2023-05-02T01:22:29;16.88;;;4.75;;
54517;SDS011;40423;53.176;6.002;2023-05-02T01:25:19;17.98;;;4.60;;
54517;SDS011;40423;53.176;6.002;2023-05-02T01:30:48;13.23;;;4.65;;
54517;SDS011;40423;53.176;6.002;2023-05-02T01:33:16;19.40;;;4.55;;
54517;SDS011;40423;53.176;6.002;2023-05-02T01:35:43;18.85;;;4.65;;
54517;SDS011;40423;53.176;6.002;2023-05-02T01:38:13;22.27;;;5.03;;
54517;SDS011;40423;53.176;6.002;2023-05-02T01:40:40;18.17;;;4.50;;
54517;SDS011;40423;53.176;6.002;2023-05-02T01:43:09;22.52;;;4.38;;
54517;SDS011;40423;53.176;6.002;2023-05-02T01:45:36;16.88;;;4.20;;
54517;SDS011;40423;53.176;6.002;2023-05-02T01:48:04;15.65;;;4.03;;
54517;SDS011;40423;53.176;6.002;2023-05-02T01:50:31;21.30;;;4.68;;
54517;SDS011;40423;53.176;6.002;2023-05-02T01:52:58;24.52;;;5.35;;
54517;SDS011;40423;53.176;6.002;2023-05-02T01:55:27;18.90;;;4.93;;
54517;SDS011;40423;53.176;6.002;2023-05-02T01:57:53;24.73;;;5.10;;
54517;SDS011;40423;53.176;6.002;2023-05-02T02:00:21;23.08;;;5.50;;
54517;SDS011;40423;53.176;6.002;2023-05-02T02:02:50;21.25;;;5.10;;
54517;SDS011;40423;53.176;6.002;2023-05-02T02:05:18;20.90;;;5.20;;
54517;SDS011;40423;53.176;6.002;2023-05-02T02:07:45;20.73;;;4.88;;
54517;SDS011;40423;53.176;6.002;2023-05-02T02:10:11;24.23;;;5.72;;
54517;SDS011;40423;53.176;6.002;2023-05-02T02:12:39;25.63;;;5.43;;
54517;SDS011;40423;53.176;6.002;2023-05-02T02:18:09;28.15;;;6.18;;
54517;SDS011;40423;53.176;6.002;2023-05-02T02:20:39;28.90;;;6.03;;
54517;SDS011;40423;53.176;6.002;2023-05-02T02:23:09;28.33;;;5.88;;
54517;SDS011;40423;53.176;6.002;2023-05-02T02:25:37;28.45;;;5.78;;
54517;SDS011;40423;53.176;6.002;2023-05-02T02:28:03;26.63;;;6.40;;
54517;SDS011;40423;53.176;6.002;2023-05-02T02:30:29;21.15;;;5.40;;
54517;SDS011;40423;53.176;6.002;2023-05-02T02:32:55;19.83;;;5.78;;
54517;SDS011;40423;53.176;6.002;2023-05-02T02:35:21;23.67;;;6.25;;
54517;SDS011;40423;53.176;6.002;2023-05-02T02:37:50;21.38;;;5.20;;
54517;SDS011;40423;53.176;6.002;2023-05-02T02:54:00;14.40;;;4.47;;
54517;SDS011;40423;53.176;6.002;2023-05-02T02:56:36;23.02;;;4.32;;
54517;SDS011;40423;53.176;6.002;2023-05-02T02:59:15;18.75;;;4.60;;
54517;SDS011;40423;53.176;6.002;2023-05-02T03:01:49;19.60;;;3.63;;
54517;SDS011;40423;53.176;6.002;2023-05-02T03:04:31;15.40;;;3.93;;
54517;SDS011;40423;53.176;6.002;2023-05-02T03:06:59;17.73;;;3.90;;
54517;SDS011;40423;53.176;6.002;2023-05-02T03:09:25;18.98;;;3.83;;
54517;SDS011;40423;53.176;6.002;2023-05-02T03:12:03;13.52;;;3.17;;
54517;SDS011;40423;53.176;6.002;2023-05-02T03:14:48;12.68;;;2.90;;
54517;SDS011;40423;53.176;6.002;2023-05-02T03:17:14;12.75;;;2.80;;
54517;SDS011;40423;53.176;6.002;2023-05-02T03:19:40;14.27;;;2.90;;
54517;SDS011;40423;53.176;6.002;2023-05-02T03:22:05;13.65;;;3.10;;
54517;SDS011;40423;53.176;6.002;2023-05-02T03:24:31;13.65;;;3.00;;
54517;SDS011;40423;53.176;6.002;2023-05-02T03:26:57;15.95;;;3.75;;
54517;SDS011;40423;53.176;6.002;2023-05-02T03:29:24;12.75;;;2.92;;
54517;SDS011;40423;53.176;6.002;2023-05-02T03:31:50;13.43;;;3.10;;
54517;SDS011;40423;53.176;6.002;2023-05-02T03:34:16;11.38;;;3.33;;
54517;SDS011;40423;53.176;6.002;2023-05-02T03:36:43;11.13;;;3.25;;
54517;SDS011;40423;53.176;6.002;2023-05-02T03:39:09;10.57;;;2.35;;
54517;SDS011;40423;53.176;6.002;2023-05-02T03:41:36;15.43;;;3.15;;
54517;SDS011;40423;53.176;6.002;2023-05-02T03:44:02;10.07;;;2.70;;
54517;SDS011;40423;53.176;6.002;2023-05-02T03:46:27;11.43;;;2.97;;
54517;SDS011;40423;53.176;6.002;2023-05-02T03:48:53;9.77;;;2.42;;
54517;SDS011;40423;53.176;6.002;2023-05-02T03:51:22;13.07;;;2.70;;
54517;SDS011;40423;53.176;6.002;2023-05-02T03:53:47;17.25;;;3.05;;
54517;SDS011;40423;53.176;6.002;2023-05-02T03:56:16;15.68;;;2.78;;
54517;SDS011;40423;53.176;6.002;2023-05-02T03:58:44;9.45;;;2.20;;
54517;SDS011;40423;53.176;6.002;2023-05-02T04:01:13;11.82;;;3.30;;
54517;SDS011;40423;53.176;6.002;2023-05-02T04:03:40;6.45;;;2.17;;
54517;SDS011;40423;53.176;6.002;2023-05-02T04:06:06;9.82;;;2.35;;
54517;SDS011;40423;53.176;6.002;2023-05-02T04:08:32;17.10;;;3.53;;
54517;SDS011;40423;53.176;6.002;2023-05-02T04:10:57;16.95;;;3.58;;
54517;SDS011;40423;53.176;6.002;2023-05-02T04:13:23;13.40;;;2.35;;
54517;SDS011;40423;53.176;6.002;2023-05-02T04:15:49;8.27;;;1.85;;
54517;SDS011;40423;53.176;6.002;2023-05-02T04:18:15;8.27;;;2.10;;
54517;SDS011;40423;53.176;6.002;2023-05-02T04:20:43;11.85;;;2.00;;
54517;SDS011;40423;53.176;6.002;2023-05-02T04:23:09;9.43;;;1.67;;
54517;SDS011;40423;53.176;6.002;2023-05-02T04:25:35;8.13;;;1.95;;
54517;SDS011;40423;53.176;6.002;2023-05-02T04:28:00;10.50;;;2.38;;
54517;SDS011;40423;53.176;6.002;2023-05-02T04:30:26;6.97;;;1.77;;
54517;SDS011;40423;53.176;6.002;2023-05-02T04:32:52;8.68;;;2.08;;
54517;SDS011;40423;53.176;6.002;2023-05-02T04:35:18;14.45;;;3.67;;
54517;SDS011;40423;53.176;6.002;2023-05-02T04:37:43;6.97;;;1.90;;
54517;SDS011;40423;53.176;6.002;2023-05-02T04:40:09;7.93;;;2.33;;
54517;SDS011;40423;53.176;6.002;2023-05-02T04:42:35;6.63;;;1.80;;
54517;SDS011;40423;53.176;6.002;2023-05-02T04:45:01;12.25;;;2.15;;
54517;SDS011;40423;53.176;6.002;2023-05-02T04:47:27;6.20;;;2.30;;
54517;SDS011;40423;53.176;6.002;2023-05-02T04:49:53;8.30;;;2.28;;
54517;SDS011;40423;53.176;6.002;2023-05-02T04:52:18;8.00;;;2.40;;
54517;SDS011;40423;53.176;6.002;2023-05-02T04:54:44;12.30;;;2.33;;
54517;SDS011;40423;53.176;6.002;2023-05-02T04:57:10;12.07;;;2.50;;
54517;SDS011;40423;53.176;6.002;2023-05-02T04:59:35;12.45;;;2.40;;
54517;SDS011;40423;53.176;6.002;2023-05-02T05:02:02;11.18;;;2.33;;
54517;SDS011;40423;53.176;6.002;2023-05-02T05:04:28;10.77;;;2.38;;
54517;SDS011;40423;53.176;6.002;2023-05-02T05:06:54;7.85;;;2.42;;
54517;SDS011;40423;53.176;6.002;2023-05-02T05:09:20;8.73;;;2.67;;
54517;SDS011;40423;53.176;6.002;2023-05-02T05:11:46;10.02;;;2.63;;
54517;SDS011;40423;53.176;6.002;2023-05-02T05:14:11;10.25;;;2.60;;
54517;SDS011;40423;53.176;6.002;2023-05-02T05:16:37;7.20;;;2.20;;
54517;SDS011;40423;53.176;6.002;2023-05-02T05:19:03;8.40;;;2.30;;
54517;SDS011;40423;53.176;6.002;2023-05-02T05:21:29;11.30;;;2.53;;
54517;SDS011;40423;53.176;6.002;2023-05-02T05:23:55;7.93;;;2.33;;
54517;SDS011;40423;53.176;6.002;2023-05-02T05:26:21;12.80;;;2.85;;
54517;SDS011;40423;53.176;6.002;2023-05-02T05:28:47;11.70;;;2.55;;
54517;SDS011;40423;53.176;6.002;2023-05-02T05:31:15;9.50;;;2.83;;
54517;SDS011;40423;53.176;6.002;2023-05-02T05:33:41;9.70;;;2.25;;
54517;SDS011;40423;53.176;6.002;2023-05-02T05:36:08;14.70;;;2.70;;
54517;SDS011;40423;53.176;6.002;2023-05-02T05:38:35;11.95;;;2.80;;
54517;SDS011;40423;53.176;6.002;2023-05-02T05:41:01;10.80;;;2.40;;
54517;SDS011;40423;53.176;6.002;2023-05-02T05:43:28;12.32;;;2.58;;
54517;SDS011;40423;53.176;6.002;2023-05-02T05:45:54;15.38;;;2.78;;
54517;SDS011;40423;53.176;6.002;2023-05-02T05:48:20;6.82;;;2.15;;
54517;SDS011;40423;53.176;6.002;2023-05-02T05:50:46;16.95;;;4.38;;
54517;SDS011;40423;53.176;6.002;2023-05-02T05:53:12;12.50;;;2.83;;
54517;SDS011;40423;53.176;6.002;2023-05-02T05:55:39;15.65;;;2.95;;
54517;SDS011;40423;53.176;6.002;2023-05-02T05:58:06;12.65;;;2.90;;
54517;SDS011;40423;53.176;6.002;2023-05-02T06:00:36;10.77;;;2.58;;
54517;SDS011;40423;53.176;6.002;2023-05-02T06:03:03;9.25;;;2.63;;
54517;SDS011;40423;53.176;6.002;2023-05-02T06:05:29;10.40;;;2.63;;
54517;SDS011;40423;53.176;6.002;2023-05-02T06:07:58;10.25;;;2.80;;
54517;SDS011;40423;53.176;6.002;2023-05-02T06:10:24;12.00;;;2.88;;
54517;SDS011;40423;53.176;6.002;2023-05-02T06:12:50;13.57;;;3.70;;
54517;SDS011;40423;53.176;6.002;2023-05-02T06:15:16;9.88;;;2.83;;
54517;SDS011;40423;53.176;6.002;2023-05-02T06:17:42;11.75;;;2.63;;
54517;SDS011;40423;53.176;6.002;2023-05-02T06:20:08;9.85;;;2.70;;
54517;SDS011;40423;53.176;6.002;2023-05-02T06:22:34;9.75;;;2.45;;
54517;SDS011;40423;53.176;6.002;2023-05-02T06:25:00;9.18;;;2.22;;
54517;SDS011;40423;53.176;6.002;2023-05-02T06:27:26;9.13;;;2.50;;
54517;SDS011;40423;53.176;6.002;2023-05-02T06:29:52;17.75;;;3.25;;
54517;SDS011;40423;53.176;6.002;2023-05-02T06:32:18;12.43;;;2.60;;
54517;SDS011;40423;53.176;6.002;2023-05-02T06:34:44;10.55;;;3.35;;
54517;SDS011;40423;53.176;6.002;2023-05-02T06:37:10;8.38;;;2.75;;
54517;SDS011;40423;53.176;6.002;2023-05-02T06:39:36;9.00;;;2.72;;
54517;SDS011;40423;53.176;6.002;2023-05-02T06:42:02;17.05;;;2.65;;
54517;SDS011;40423;53.176;6.002;2023-05-02T06:44:28;10.40;;;2.60;;
54517;SDS011;40423;53.176;6.002;2023-05-02T06:46:54;13.60;;;3.00;;
54517;SDS011;40423;53.176;6.002;2023-05-02T06:49:20;11.73;;;2.90;;
54517;SDS011;40423;53.176;6.002;2023-05-02T06:51:50;12.38;;;3.40;;
54517;SDS011;40423;53.176;6.002;2023-05-02T06:54:15;12.10;;;3.10;;
54517;SDS011;40423;53.176;6.002;2023-05-02T06:56:41;11.20;;;2.72;;
54517;SDS011;40423;53.176;6.002;2023-05-02T06:59:07;12.88;;;3.22;;
54517;SDS011;40423;53.176;6.002;2023-05-02T07:01:32;13.10;;;3.00;;
54517;SDS011;40423;53.176;6.002;2023-05-02T07:03:59;14.85;;;3.20;;
54517;SDS011;40423;53.176;6.002;2023-05-02T07:06:25;14.45;;;3.28;;
54517;SDS011;40423;53.176;6.002;2023-05-02T07:08:51;15.02;;;3.95;;
54517;SDS011;40423;53.176;6.002;2023-05-02T07:11:17;14.82;;;3.95;;
54517;SDS011;40423;53.176;6.002;2023-05-02T07:13:43;9.10;;;3.00;;
54517;SDS011;40423;53.176;6.002;2023-05-02T07:16:10;9.68;;;2.55;;
54517;SDS011;40423;53.176;6.002;2023-05-02T07:18:36;15.93;;;3.22;;
54517;SDS011;40423;53.176;6.002;2023-05-02T07:21:01;11.52;;;3.28;;
54517;SDS011;40423;53.176;6.002;2023-05-02T07:23:27;8.77;;;2.90;;
54517;SDS011;40423;53.176;6.002;2023-05-02T07:25:53;8.90;;;2.65;;
54517;SDS011;40423;53.176;6.002;2023-05-02T07:28:19;12.65;;;2.63;;
54517;SDS011;40423;53.176;6.002;2023-05-02T07:30:45;9.38;;;2.80;;
54517;SDS011;40423;53.176;6.002;2023-05-02T07:33:10;14.10;;;2.65;;
54517;SDS011;40423;53.176;6.002;2023-05-02T07:35:36;9.20;;;3.08;;
54517;SDS011;40423;53.176;6.002;2023-05-02T07:38:02;7.20;;;2.35;;
54517;SDS011;40423;53.176;6.002;2023-05-02T07:40:27;14.75;;;3.00;;
54517;SDS011;40423;53.176;6.002;2023-05-02T07:42:53;9.30;;;2.78;;
54517;SDS011;40423;53.176;6.002;2023-05-02T07:45:19;10.10;;;2.65;;
54517;SDS011;40423;53.176;6.002;2023-05-02T07:47:48;10.70;;;2.67;;
54517;SDS011;40423;53.176;6.002;2023-05-02T07:50:13;11.45;;;2.88;;
54517;SDS011;40423;53.176;6.002;2023-05-02T07:52:39;11.35;;;2.53;;
54517;SDS011;40423;53.176;6.002;2023-05-02T07:55:05;10.52;;;2.70;;
54517;SDS011;40423;53.176;6.002;2023-05-02T07:57:31;7.22;;;2.15;;
54517;SDS011;40423;53.176;6.002;2023-05-02T07:59:57;6.95;;;2.17;;
54517;SDS011;40423;53.176;6.002;2023-05-02T08:02:23;10.60;;;3.40;;
54517;SDS011;40423;53.176;6.002;2023-05-02T08:04:50;10.35;;;2.25;;
54517;SDS011;40423;53.176;6.002;2023-05-02T08:07:16;12.90;;;2.92;;
54517;SDS011;40423;53.176;6.002;2023-05-02T08:09:41;8.43;;;2.05;;
54517;SDS011;40423;53.176;6.002;2023-05-02T08:12:07;8.45;;;2.00;;
54517;SDS011;40423;53.176;6.002;2023-05-02T08:14:33;6.53;;;2.47;;
54517;SDS011;40423;53.176;6.002;2023-05-02T08:16:59;9.50;;;2.63;;
54517;SDS011;40423;53.176;6.002;2023-05-02T08:19:25;7.63;;;2.00;;
54517;SDS011;40423;53.176;6.002;2023-05-02T08:21:54;14.10;;;4.32;;
54517;SDS011;40423;53.176;6.002;2023-05-02T08:24:20;7.90;;;2.15;;
54517;SDS011;40423;53.176;6.002;2023-05-02T08:26:46;10.15;;;2.85;;
54517;SDS011;40423;53.176;6.002;2023-05-02T08:29:12;10.05;;;2.35;;
54517;SDS011;40423;53.176;6.002;2023-05-02T08:31:38;7.70;;;2.20;;
54517;SDS011;40423;53.176;6.002;2023-05-02T08:34:04;9.50;;;2.72;;
54517;SDS011;40423;53.176;6.002;2023-05-02T08:36:30;18.10;;;2.40;;
54517;SDS011;40423;53.176;6.002;2023-05-02T08:38:56;10.73;;;2.50;;
54517;SDS011;40423;53.176;6.002;2023-05-02T08:41:22;10.75;;;2.03;;
54517;SDS011;40423;53.176;6.002;2023-05-02T08:43:49;6.63;;;1.88;;
54517;SDS011;40423;53.176;6.002;2023-05-02T08:46:16;8.85;;;2.42;;
54517;SDS011;40423;53.176;6.002;2023-05-02T08:48:43;11.27;;;1.88;;
54517;SDS011;40423;53.176;6.002;2023-05-02T08:51:15;7.03;;;1.70;;
54517;SDS011;40423;53.176;6.002;2023-05-02T08:53:43;7.00;;;2.22;;
54517;SDS011;40423;53.176;6.002;2023-05-02T08:56:09;4.70;;;1.48;;
54517;SDS011;40423;53.176;6.002;2023-05-02T08:58:36;7.45;;;1.40;;
54517;SDS011;40423;53.176;6.002;2023-05-02T09:01:08;4.00;;;1.30;;
54517;SDS011;40423;53.176;6.002;2023-05-02T09:03:39;9.20;;;1.55;;
54517;SDS011;40423;53.176;6.002;2023-05-02T09:06:07;10.02;;;1.60;;
54517;SDS011;40423;53.176;6.002;2023-05-02T09:08:35;5.78;;;1.00;;
54517;SDS011;40423;53.176;6.002;2023-05-02T09:11:02;3.45;;;1.30;;
54517;SDS011;40423;53.176;6.002;2023-05-02T09:16:08;5.72;;;1.52;;
54517;SDS011;40423;53.176;6.002;2023-05-02T09:18:44;2.15;;;0.80;;
54517;SDS011;40423;53.176;6.002;2023-05-02T09:21:17;13.63;;;1.92;;
54517;SDS011;40423;53.176;6.002;2023-05-02T09:26:15;5.82;;;1.23;;
54517;SDS011;40423;53.176;6.002;2023-05-02T09:28:48;7.70;;;1.88;;
54517;SDS011;40423;53.176;6.002;2023-05-02T09:31:15;6.00;;;1.50;;
54517;SDS011;40423;53.176;6.002;2023-05-02T09:33:42;5.93;;;1.48;;
54517;SDS011;40423;53.176;6.002;2023-05-02T09:36:10;7.53;;;1.25;;
54517;SDS011;40423;53.176;6.002;2023-05-02T09:38:38;8.40;;;1.80;;
54517;SDS011;40423;53.176;6.002;2023-05-02T09:41:05;7.25;;;1.95;;
54517;SDS011;40423;53.176;6.002;2023-05-02T09:43:31;2.88;;;1.25;;
54517;SDS011;40423;53.176;6.002;2023-05-02T09:46:04;5.38;;;1.13;;
54517;SDS011;40423;53.176;6.002;2023-05-02T09:48:51;9.00;;;2.03;;
54517;SDS011;40423;53.176;6.002;2023-05-02T09:51:21;5.15;;;1.60;;
54517;SDS011;40423;53.176;6.002;2023-05-02T09:53:48;7.18;;;1.10;;
54517;SDS011;40423;53.176;6.002;2023-05-02T09:56:14;6.05;;;1.30;;
54517;SDS011;40423;53.176;6.002;2023-05-02T09:58:40;3.13;;;1.15;;
54517;SDS011;40423;53.176;6.002;2023-05-02T10:01:06;5.13;;;1.40;;
54517;SDS011;40423;53.176;6.002;2023-05-02T10:03:34;4.28;;;1.58;;
54517;SDS011;40423;53.176;6.002;2023-05-02T10:06:02;9.75;;;2.72;;
54517;SDS011;40423;53.176;6.002;2023-05-02T10:08:29;3.45;;;1.08;;
54517;SDS011;40423;53.176;6.002;2023-05-02T10:10:58;5.63;;;1.38;;
54517;SDS011;40423;53.176;6.002;2023-05-02T10:13:25;5.65;;;1.30;;
54517;SDS011;40423;53.176;6.002;2023-05-02T10:16:05;4.65;;;1.10;;
54517;SDS011;40423;53.176;6.002;2023-05-02T10:21:10;3.33;;;1.08;;
54517;SDS011;40423;53.176;6.002;2023-05-02T10:23:37;5.15;;;1.20;;
54517;SDS011;40423;53.176;6.002;2023-05-02T10:26:15;7.40;;;1.98;;
54517;SDS011;40423;53.176;6.002;2023-05-02T10:28:41;7.20;;;1.70;;
54517;SDS011;40423;53.176;6.002;2023-05-02T10:31:10;7.30;;;1.80;;
54517;SDS011;40423;53.176;6.002;2023-05-02T10:33:38;8.43;;;1.70;;
54517;SDS011;40423;53.176;6.002;2023-05-02T10:36:04;5.53;;;1.67;;
54517;SDS011;40423;53.176;6.002;2023-05-02T10:38:32;6.95;;;1.60;;
54517;SDS011;40423;53.176;6.002;2023-05-02T10:41:00;5.85;;;1.25;;
54517;SDS011;40423;53.176;6.002;2023-05-02T10:43:33;4.75;;;1.67;;
54517;SDS011;40423;53.176;6.002;2023-05-02T10:46:01;3.53;;;1.13;;
54517;SDS011;40423;53.176;6.002;2023-05-02T10:48:28;5.80;;;1.92;;
54517;SDS011;40423;53.176;6.002;2023-05-02T10:50:58;6.50;;;1.77;;
54517;SDS011;40423;53.176;6.002;2023-05-02T10:53:31;5.75;;;1.55;;
54517;SDS011;40423;53.176;6.002;2023-05-02T10:56:19;9.27;;;1.80;;
54517;SDS011;40423;53.176;6.002;2023-05-02T10:58:49;6.20;;;1.50;;
54517;SDS011;40423;53.176;6.002;2023-05-02T11:04:03;5.00;;;2.43;;
54517;SDS011;40423;53.176;6.002;2023-05-02T11:07:16;9.88;;;1.40;;
54517;SDS011;40423;53.176;6.002;2023-05-02T11:11:54;3.67;;;1.02;;
54517;SDS011;40423;53.176;6.002;2023-05-02T11:24:52;6.95;;;2.40;;
54517;SDS011;40423;53.176;6.002;2023-05-02T11:29:58;5.57;;;1.45;;
54517;SDS011;40423;53.176;6.002;2023-05-02T11:35:17;4.70;;;1.60;;
54517;SDS011;40423;53.176;6.002;2023-05-02T11:40:23;4.82;;;1.50;;
54517;SDS011;40423;53.176;6.002;2023-05-02T11:42:50;6.25;;;1.63;;
54517;SDS011;40423;53.176;6.002;2023-05-02T11:45:16;5.47;;;1.30;;
54517;SDS011;40423;53.176;6.002;2023-05-02T11:47:42;3.95;;;1.42;;
54517;SDS011;40423;53.176;6.002;2023-05-02T11:50:10;5.28;;;1.30;;
54517;SDS011;40423;53.176;6.002;2023-05-02T11:52:37;5.15;;;1.00;;
54517;SDS011;40423;53.176;6.002;2023-05-02T11:55:07;3.40;;;1.10;;
54517;SDS011;40423;53.176;6.002;2023-05-02T11:57:36;4.75;;;1.10;;
54517;SDS011;40423;53.176;6.002;2023-05-02T12:00:03;2.65;;;1.10;;
54517;SDS011;40423;53.176;6.002;2023-05-02T12:02:39;2.85;;;1.00;;
54517;SDS011;40423;53.176;6.002;2023-05-02T12:05:08;5.03;;;1.70;;
54517;SDS011;40423;53.176;6.002;2023-05-02T12:10:04;6.60;;;1.02;;
54517;SDS011;40423;53.176;6.002;2023-05-02T12:12:31;3.33;;;1.27;;
54517;SDS011;40423;53.176;6.002;2023-05-02T12:14:57;6.25;;;1.27;;
54517;SDS011;40423;53.176;6.002;2023-05-02T12:17:27;5.18;;;1.05;;
54517;SDS011;40423;53.176;6.002;2023-05-02T12:19:53;3.10;;;1.10;;
54517;SDS011;40423;53.176;6.002;2023-05-02T12:22:22;7.28;;;1.52;;
54517;SDS011;40423;53.176;6.002;2023-05-02T12:24:49;5.35;;;1.20;;
54517;SDS011;40423;53.176;6.002;2023-05-02T12:27:15;3.08;;;1.23;;
54517;SDS011;40423;53.176;6.002;2023-05-02T12:29:45;5.95;;;1.40;;
54517;SDS011;40423;53.176;6.002;2023-05-02T12:32:12;7.65;;;1.90;;
54517;SDS011;40423;53.176;6.002;2023-05-02T12:34:39;3.88;;;1.42;;
54517;SDS011;40423;53.176;6.002;2023-05-02T12:37:05;6.03;;;1.17;;
54517;SDS011;40423;53.176;6.002;2023-05-02T12:39:39;6.28;;;1.42;;
54517;SDS011;40423;53.176;6.002;2023-05-02T12:44:40;5.65;;;1.13;;
54517;SDS011;40423;53.176;6.002;2023-05-02T12:47:10;4.82;;;1.08;;
54517;SDS011;40423;53.176;6.002;2023-05-02T12:49:51;4.65;;;1.10;;
54517;SDS011;40423;53.176;6.002;2023-05-02T12:52:18;6.63;;;1.38;;
54517;SDS011;40423;53.176;6.002;2023-05-02T12:54:45;5.13;;;1.15;;
54517;SDS011;40423;53.176;6.002;2023-05-02T12:57:21;4.00;;;1.20;;
54517;SDS011;40423;53.176;6.002;2023-05-02T12:59:49;5.63;;;1.17;;
54517;SDS011;40423;53.176;6.002;2023-05-02T13:02:17;3.58;;;0.82;;
54517;SDS011;40423;53.176;6.002;2023-05-02T13:04:43;6.55;;;1.00;;
54517;SDS011;40423;53.176;6.002;2023-05-02T13:07:08;3.78;;;1.40;;
54517;SDS011;40423;53.176;6.002;2023-05-02T13:09:35;5.47;;;0.82;;
54517;SDS011;40423;53.176;6.002;2023-05-02T13:12:01;5.93;;;1.35;;
54517;SDS011;40423;53.176;6.002;2023-05-02T13:14:27;3.13;;;1.10;;
54517;SDS011;40423;53.176;6.002;2023-05-02T13:16:53;4.80;;;1.45;;
54517;SDS011;40423;53.176;6.002;2023-05-02T13:19:19;7.45;;;1.00;;
54517;SDS011;40423;53.176;6.002;2023-05-02T13:21:46;6.20;;;1.40;;
54517;SDS011;40423;53.176;6.002;2023-05-02T13:24:12;2.67;;;0.80;;
54517;SDS011;40423;53.176;6.002;2023-05-02T13:26:39;2.67;;;0.80;;
54517;SDS011;40423;53.176;6.002;2023-05-02T13:29:05;4.38;;;0.90;;
54517;SDS011;40423;53.176;6.002;2023-05-02T13:31:33;2.63;;;0.80;;
54517;SDS011;40423;53.176;6.002;2023-05-02T13:33:59;3.17;;;0.88;;
54517;SDS011;40423;53.176;6.002;2023-05-02T13:36:25;2.20;;;0.60;;
54517;SDS011;40423;53.176;6.002;2023-05-02T13:38:51;1.92;;;0.57;;
54517;SDS011;40423;53.176;6.002;2023-05-02T13:41:16;4.35;;;0.80;;
54517;SDS011;40423;53.176;6.002;2023-05-02T13:43:43;1.40;;;0.60;;
54517;SDS011;40423;53.176;6.002;2023-05-02T13:46:08;3.15;;;0.65;;
54517;SDS011;40423;53.176;6.002;2023-05-02T13:48:34;2.53;;;0.60;;
54517;SDS011;40423;53.176;6.002;2023-05-02T13:51:01;2.25;;;0.60;;
54517;SDS011;40423;53.176;6.002;2023-05-02T13:53:27;4.80;;;0.82;;
54517;SDS011;40423;53.176;6.002;2023-05-02T13:55:53;4.65;;;0.90;;
54517;SDS011;40423;53.176;6.002;2023-05-02T13:58:19;7.70;;;0.60;;
54517;SDS011;40423;53.176;6.002;2023-05-02T14:00:45;3.33;;;1.00;;
54517;SDS011;40423;53.176;6.002;2023-05-02T14:03:11;5.78;;;1.05;;
54517;SDS011;40423;53.176;6.002;2023-05-02T14:05:37;5.25;;;1.00;;
54517;SDS011;40423;53.176;6.002;2023-05-02T14:08:07;2.92;;;0.80;;
54517;SDS011;40423;53.176;6.002;2023-05-02T14:10:34;4.03;;;1.52;;
54517;SDS011;40423;53.176;6.002;2023-05-02T14:13:02;5.28;;;1.42;;
54517;SDS011;40423;53.176;6.002;2023-05-02T14:15:28;4.80;;;0.90;;
54517;SDS011;40423;53.176;6.002;2023-05-02T14:17:54;6.13;;;1.20;;
54517;SDS011;40423;53.176;6.002;2023-05-02T14:20:19;5.47;;;1.65;;
54517;SDS011;40423;53.176;6.002;2023-05-02T14:22:47;10.05;;;1.25;;
54517;SDS011;40423;53.176;6.002;2023-05-02T14:25:13;8.75;;;1.20;;
54517;SDS011;40423;53.176;6.002;2023-05-02T14:27:40;6.03;;;1.45;;
54517;SDS011;40423;53.176;6.002;2023-05-02T14:30:07;5.88;;;1.00;;
54517;SDS011;40423;53.176;6.002;2023-05-02T14:32:33;5.78;;;1.75;;
54517;SDS011;40423;53.176;6.002;2023-05-02T14:34:59;4.85;;;1.00;;
54517;SDS011;40423;53.176;6.002;2023-05-02T14:37:25;7.20;;;1.40;;
54517;SDS011;40423;53.176;6.002;2023-05-02T14:39:51;10.18;;;1.98;;
54517;SDS011;40423;53.176;6.002;2023-05-02T14:42:20;4.25;;;0.82;;
54517;SDS011;40423;53.176;6.002;2023-05-02T14:44:46;2.20;;;0.80;;
54517;SDS011;40423;53.176;6.002;2023-05-02T14:47:12;4.90;;;1.52;;
54517;SDS011;40423;53.176;6.002;2023-05-02T14:49:38;6.45;;;1.33;;
54517;SDS011;40423;53.176;6.002;2023-05-02T14:52:03;4.07;;;1.20;;
54517;SDS011;40423;53.176;6.002;2023-05-02T14:54:29;6.43;;;1.08;;
54517;SDS011;40423;53.176;6.002;2023-05-02T14:56:55;5.60;;;1.52;;
54517;SDS011;40423;53.176;6.002;2023-05-02T14:59:21;3.95;;;1.48;;
54517;SDS011;40423;53.176;6.002;2023-05-02T15:01:47;7.70;;;1.20;;
54517;SDS011;40423;53.176;6.002;2023-05-02T15:04:13;4.80;;;1.08;;
54517;SDS011;40423;53.176;6.002;2023-05-02T15:06:38;5.55;;;1.35;;
54517;SDS011;40423;53.176;6.002;2023-05-02T15:09:04;4.38;;;1.10;;
54517;SDS011;40423;53.176;6.002;2023-05-02T15:11:30;5.90;;;1.17;;
54517;SDS011;40423;53.176;6.002;2023-05-02T15:13:56;3.92;;;1.00;;
54517;SDS011;40423;53.176;6.002;2023-05-02T15:16:22;4.82;;;1.00;;
54517;SDS011;40423;53.176;6.002;2023-05-02T15:18:48;2.35;;;0.93;;
54517;SDS011;40423;53.176;6.002;2023-05-02T15:21:13;6.70;;;1.20;;
54517;SDS011;40423;53.176;6.002;2023-05-02T15:23:39;8.05;;;1.15;;
54517;SDS011;40423;53.176;6.002;2023-05-02T15:26:05;4.88;;;1.05;;
54517;SDS011;40423;53.176;6.002;2023-05-02T15:28:31;5.90;;;1.20;;
54517;SDS011;40423;53.176;6.002;2023-05-02T15:30:56;5.38;;;0.95;;
54517;SDS011;40423;53.176;6.002;2023-05-02T15:33:22;5.53;;;1.10;;
54517;SDS011;40423;53.176;6.002;2023-05-02T15:35:51;4.10;;;1.23;;
54517;SDS011;40423;53.176;6.002;2023-05-02T15:38:19;7.68;;;1.10;;
54517;SDS011;40423;53.176;6.002;2023-05-02T15:40:52;6.43;;;1.17;;
54517;SDS011;40423;53.176;6.002;2023-05-02T15:43:22;5.55;;;1.05;;
54517;SDS011;40423;53.176;6.002;2023-05-02T15:45:57;8.20;;;1.17;;
54517;SDS011;40423;53.176;6.002;2023-05-02T15:48:27;3.70;;;1.50;;